createdAt,value
2022-08-16T00:01:15.787Z,4.73
2022-08-16T00:03:42.238Z,4.64
2022-08-16T00:06:10.086Z,4.58
2022-08-16T00:08:38.449Z,4.43
2022-08-16T00:11:05.735Z,4.39
2022-08-16T00:13:32.313Z,4.45
2022-08-16T00:17:05.388Z,4.54
2022-08-16T00:18:55.584Z,4.59
2022-08-16T00:21:22.985Z,4.23
2022-08-16T00:23:49.543Z,4.32
2022-08-16T00:26:35.946Z,4.42
2022-08-16T00:29:02.812Z,4.27
2022-08-16T00:31:58.673Z,4.39
2022-08-16T00:34:18.713Z,4.41
2022-08-16T00:36:47.352Z,4.53
2022-08-16T00:39:15.529Z,4.67
2022-08-16T00:41:42.217Z,4.55
2022-08-16T00:44:13.167Z,4.58
2022-08-16T00:46:52.969Z,4.48
2022-08-16T00:49:29.779Z,4.77
2022-08-16T00:52:23.762Z,4.53
2022-08-16T00:54:55.176Z,4.78
2022-08-16T00:57:23.995Z,4.66
2022-08-16T00:59:58.812Z,4.66
2022-08-16T01:02:31.573Z,4.58
2022-08-16T01:05:09.131Z,4.82
2022-08-16T01:07:52.153Z,4.71
2022-08-16T01:10:19.792Z,4.79
2022-08-16T01:12:46.581Z,5.03
2022-08-16T01:15:13.775Z,4.70
2022-08-16T01:17:40.641Z,4.56
2022-08-16T01:20:23.694Z,4.89
2022-08-16T01:22:52.524Z,4.78
2022-08-16T01:25:19.317Z,4.50
2022-08-16T01:27:50.549Z,4.50
2022-08-16T01:30:19.371Z,4.94
2022-08-16T01:32:47.022Z,4.92
2022-08-16T01:35:28.418Z,5.10
2022-08-16T01:38:01.974Z,4.64
2022-08-16T01:40:31.822Z,4.79
2022-08-16T01:42:58.374Z,4.88
2022-08-16T01:45:40.444Z,4.94
2022-08-16T01:48:19.608Z,4.78
2022-08-16T01:51:09.628Z,4.88
2022-08-16T01:53:35.780Z,5.08
2022-08-16T01:56:02.242Z,4.79
2022-08-16T01:58:29.936Z,4.75
2022-08-16T02:00:56.723Z,4.76
2022-08-16T02:03:26.672Z,4.43
2022-08-16T02:05:53.730Z,5.07
2022-08-16T02:08:33.023Z,4.90
2022-08-16T02:11:00.589Z,4.84
2022-08-16T02:13:27.785Z,4.78
2022-08-16T02:15:59.491Z,4.73
2022-08-16T02:18:26.241Z,4.73
2022-08-16T02:20:53.602Z,4.76
2022-08-16T02:23:21.073Z,4.65
2022-08-16T02:25:52.295Z,4.82
2022-08-16T02:28:20.685Z,4.96
2022-08-16T02:30:51.879Z,4.97
2022-08-16T02:33:18.845Z,4.84
2022-08-16T02:35:54.002Z,4.94
2022-08-16T02:38:32.976Z,4.78
2022-08-16T02:40:59.535Z,5.16
2022-08-16T02:43:26.717Z,5.14
2022-08-16T02:45:54.084Z,5.01
2022-08-16T02:48:29.310Z,4.71
2022-08-16T02:51:06.139Z,4.93
2022-08-16T02:53:34.779Z,4.61
2022-08-16T02:56:01.955Z,5.30
2022-08-16T02:58:28.436Z,5.20
2022-08-16T03:00:57.257Z,5.06
2022-08-16T03:03:24.408Z,4.95
2022-08-16T03:05:52.494Z,4.94
2022-08-16T03:08:51.098Z,5.13
2022-08-16T03:11:16.638Z,4.85
2022-08-16T03:13:44.897Z,5.14
2022-08-16T03:16:32.829Z,4.82
2022-08-16T03:19:01.782Z,5.12
2022-08-16T03:21:28.497Z,5.25
2022-08-16T03:24:04.849Z,4.73
2022-08-16T03:26:31.706Z,4.98
2022-08-16T03:28:58.605Z,5.16
2022-08-16T03:31:34.498Z,5.23
2022-08-16T03:34:01.754Z,4.82
2022-08-16T03:36:30.864Z,5.27
2022-08-16T03:38:59.685Z,5.13
2022-08-16T03:41:49.635Z,4.85
2022-08-16T03:44:43.956Z,4.86
2022-08-16T03:47:03.494Z,5.15
2022-08-16T03:49:36.538Z,5.09
2022-08-16T03:52:03.892Z,5.22
2022-08-16T03:54:35.753Z,5.48
2022-08-16T03:57:02.796Z,5.27
2022-08-16T03:59:31.577Z,5.19
2022-08-16T04:01:58.133Z,5.20
2022-08-16T04:04:33.016Z,5.09
2022-08-16T04:07:00.617Z,4.77
2022-08-16T04:09:29.745Z,4.97
2022-08-16T04:11:57.185Z,4.94
2022-08-16T04:14:46.638Z,5.04
2022-08-16T04:17:13.518Z,5.19
2022-08-16T04:19:45.403Z,4.96
2022-08-16T04:22:12.312Z,5.29
2022-08-16T04:24:40.112Z,5.21
2022-08-16T04:27:08.989Z,5.20
2022-08-16T04:29:46.377Z,4.88
2022-08-16T04:32:13.754Z,5.07
2022-08-16T04:34:40.511Z,5.26
2022-08-16T04:37:07.081Z,5.34
2022-08-16T04:39:44.933Z,5.07
2022-08-16T04:42:14.121Z,5.33
2022-08-16T04:44:57.509Z,4.95
2022-08-16T04:47:24.679Z,4.90
2022-08-16T04:49:52.794Z,5.20
2022-08-16T04:52:33.579Z,5.70
2022-08-16T04:55:03.453Z,5.37
2022-08-16T04:57:30.431Z,5.36
2022-08-16T04:59:58.998Z,5.44
2022-08-16T05:02:45.540Z,5.54
2022-08-16T05:05:17.696Z,5.39
2022-08-16T05:07:58.560Z,7.35
2022-08-16T05:10:26.872Z,6.02
2022-08-16T05:12:54.271Z,5.76
2022-08-16T05:15:20.894Z,5.38
2022-08-16T05:17:48.839Z,5.57
2022-08-16T05:20:38.884Z,5.30
2022-08-16T05:23:13.811Z,5.60
2022-08-16T05:25:48.732Z,5.80
2022-08-16T05:28:15.663Z,5.88
2022-08-16T05:30:43.170Z,5.22
2022-08-16T05:33:16.807Z,5.29
2022-08-16T05:35:44.667Z,5.48
2022-08-16T05:38:33.432Z,5.50
2022-08-16T05:41:05.660Z,5.76
2022-08-16T05:43:43.396Z,6.32
2022-08-16T05:46:28.457Z,6.18
2022-08-16T05:49:01.768Z,6.00
2022-08-16T05:51:38.527Z,5.53
2022-08-16T05:54:07.015Z,5.73
2022-08-16T05:56:37.394Z,5.63
2022-08-16T05:59:04.346Z,5.53
2022-08-16T06:01:38.016Z,6.05
2022-08-16T06:04:05.382Z,5.79
2022-08-16T06:06:40.425Z,5.41
2022-08-16T06:09:10.888Z,5.27
2022-08-16T06:11:37.445Z,5.46
2022-08-16T06:14:04.270Z,5.27
2022-08-16T06:16:34.355Z,5.15
2022-08-16T06:19:04.760Z,5.18
2022-08-16T06:21:36.928Z,5.31
2022-08-16T06:24:53.550Z,5.50
2022-08-16T06:26:57.779Z,5.38
2022-08-16T06:29:24.975Z,5.42
2022-08-16T06:31:51.714Z,5.30
2022-08-16T06:34:56.228Z,5.22
2022-08-16T06:37:05.226Z,5.54
2022-08-16T06:39:34.573Z,5.62
2022-08-16T06:42:18.189Z,5.54
2022-08-16T06:44:45.699Z,5.62
2022-08-16T06:47:12.370Z,5.62
2022-08-16T06:49:43.816Z,5.46
2022-08-16T06:52:57.614Z,5.37
2022-08-16T06:55:07.460Z,5.58
2022-08-16T06:57:39.882Z,6.16
2022-08-16T07:00:13.008Z,5.74
2022-08-16T07:02:51.439Z,5.75
2022-08-16T07:05:18.501Z,5.67
2022-08-16T07:07:45.073Z,5.55
2022-08-16T07:10:17.463Z,6.29
2022-08-16T07:12:47.036Z,5.98
2022-08-16T07:15:17.153Z,5.84
2022-08-16T07:17:46.009Z,6.23
2022-08-16T07:20:35.295Z,6.27
2022-08-16T07:23:03.195Z,6.50
2022-08-16T07:25:40.740Z,6.29
2022-08-16T07:28:12.011Z,5.50
2022-08-16T07:30:47.088Z,5.87
2022-08-16T07:33:18.443Z,5.75
2022-08-16T07:36:03.633Z,5.76
2022-08-16T07:38:33.681Z,5.91
2022-08-16T07:41:01.756Z,5.87
2022-08-16T07:43:29.582Z,5.74
2022-08-16T07:45:56.568Z,6.03
2022-08-16T07:48:24.202Z,6.24
2022-08-16T07:50:56.527Z,5.85
2022-08-16T07:53:25.477Z,5.63
2022-08-16T07:55:56.001Z,5.39
2022-08-16T07:58:33.638Z,5.85
2022-08-16T08:01:02.148Z,5.78
2022-08-16T08:03:38.837Z,5.81
2022-08-16T08:06:10.241Z,6.41
2022-08-16T08:08:49.725Z,5.88
2022-08-16T08:11:21.504Z,5.66
2022-08-16T08:13:48.494Z,6.36
2022-08-16T08:16:19.071Z,6.05
2022-08-16T08:18:50.314Z,5.88
2022-08-16T08:21:27.593Z,5.85
2022-08-16T08:24:09.589Z,6.13
2022-08-16T08:26:36.290Z,5.79
2022-08-16T08:29:09.456Z,6.42
2022-08-16T08:31:36.283Z,6.00
2022-08-16T08:34:04.717Z,5.98
2022-08-16T08:36:33.289Z,6.10
2022-08-16T08:39:00.262Z,6.20
2022-08-16T08:41:29.030Z,6.36
2022-08-16T08:43:55.591Z,6.39
2022-08-16T08:46:22.413Z,6.60
2022-08-16T08:49:00.165Z,6.11
2022-08-16T08:51:31.880Z,6.50
2022-08-16T08:53:58.959Z,6.91
2022-08-16T08:56:26.549Z,6.24
2022-08-16T08:58:54.721Z,6.78
2022-08-16T09:01:31.628Z,6.46
2022-08-16T09:04:03.191Z,6.35
2022-08-16T09:06:31.949Z,6.47
2022-08-16T09:09:06.796Z,6.58
2022-08-16T09:11:40.475Z,7.58
2022-08-16T09:14:07.732Z,6.35
2022-08-16T09:17:03.092Z,6.45
2022-08-16T09:19:33.819Z,6.62
2022-08-16T09:22:00.785Z,6.62
2022-08-16T09:24:52.632Z,6.77
2022-08-16T09:27:14.132Z,6.26
2022-08-16T09:29:44.366Z,6.49
2022-08-16T09:32:11.277Z,6.26
2022-08-16T09:34:37.953Z,6.51
2022-08-16T09:37:17.887Z,6.25
2022-08-16T09:39:50.342Z,6.43
2022-08-16T09:42:19.019Z,6.10
2022-08-16T09:45:13.038Z,6.26
2022-08-16T09:47:56.462Z,6.49
2022-08-16T09:50:22.602Z,6.92
2022-08-16T09:52:50.156Z,6.65
2022-08-16T09:55:16.944Z,6.11
2022-08-16T09:57:43.465Z,6.11
2022-08-16T10:00:44.214Z,5.97
2022-08-16T10:03:06.589Z,5.83
2022-08-16T10:05:36.749Z,6.05
2022-08-16T10:08:26.368Z,5.75
2022-08-16T10:10:50.620Z,6.07
2022-08-16T10:13:17.127Z,5.75
2022-08-16T10:15:43.702Z,6.15
2022-08-16T10:19:01.418Z,5.61
2022-08-16T10:21:06.389Z,5.67
2022-08-16T10:23:35.779Z,6.07
2022-08-16T10:27:03.786Z,5.96
2022-08-16T10:28:50.372Z,5.95
2022-08-16T10:31:45.471Z,5.83
2022-08-16T10:34:03.866Z,5.73
2022-08-16T10:36:38.877Z,6.04
2022-08-16T10:39:08.541Z,5.37
2022-08-16T10:41:35.557Z,5.69
2022-08-16T10:44:02.414Z,5.86
2022-08-16T10:46:39.617Z,5.82
2022-08-16T10:49:08.622Z,5.96
2022-08-16T10:52:02.272Z,5.90
2022-08-16T10:54:29.166Z,6.17
2022-08-16T10:56:57.093Z,6.33
2022-08-16T10:59:39.252Z,15.39
2022-08-16T11:02:59.534Z,6.46
2022-08-16T11:05:12.233Z,6.41
2022-08-16T11:07:51.576Z,5.87
2022-08-16T11:10:21.024Z,6.37
2022-08-16T11:13:57.454Z,5.74
2022-08-16T11:15:55.796Z,5.85
2022-08-16T11:18:48.743Z,5.45
2022-08-16T11:21:09.351Z,5.89
2022-08-16T11:23:57.489Z,5.82
2022-08-16T11:26:25.303Z,5.54
2022-08-16T11:31:38.748Z,5.74
2022-08-16T11:34:05.424Z,5.48
2022-08-16T11:36:34.590Z,5.49
2022-08-16T11:39:01.809Z,5.42
2022-08-16T11:41:29.507Z,5.49
2022-08-16T11:43:58.982Z,5.20
2022-08-16T11:46:45.081Z,5.32
2022-08-16T11:49:14.156Z,5.00
2022-08-16T11:51:40.907Z,5.29
2022-08-16T11:54:09.030Z,5.19
2022-08-16T11:56:52.632Z,4.58
2022-08-16T11:59:24.277Z,5.00
2022-08-16T12:01:59.364Z,5.19
2022-08-16T12:04:27.003Z,4.85
2022-08-16T12:06:54.647Z,4.33
2022-08-16T12:09:21.413Z,5.18
2022-08-16T12:11:52.563Z,5.46
2022-08-16T12:14:20.297Z,5.09
2022-08-16T12:16:55.662Z,4.65
2022-08-16T12:19:33.972Z,5.12
2022-08-16T12:22:05.839Z,4.74
2022-08-16T12:24:47.815Z,4.37
2022-08-16T12:27:17.367Z,4.93
2022-08-16T12:29:43.959Z,4.53
2022-08-16T12:32:27.171Z,4.52
2022-08-16T12:34:58.037Z,4.61
2022-08-16T12:37:27.589Z,4.69
2022-08-16T12:39:54.337Z,4.56
2022-08-16T12:42:21.037Z,5.45
2022-08-16T12:45:00.879Z,5.01
2022-08-16T12:47:29.665Z,5.21
2022-08-16T12:50:03.576Z,4.78
2022-08-16T12:52:33.674Z,4.79
2022-08-16T12:55:03.833Z,4.78
2022-08-16T12:57:36.324Z,4.97
2022-08-16T13:00:03.507Z,5.04
2022-08-16T13:02:33.661Z,4.87
2022-08-16T13:05:03.001Z,4.96
2022-08-16T13:07:29.576Z,4.97
2022-08-16T13:10:09.826Z,5.01
2022-08-16T13:12:48.091Z,4.53
2022-08-16T13:15:16.066Z,4.63
2022-08-16T13:17:43.192Z,4.66
2022-08-16T13:20:11.256Z,4.50
2022-08-16T13:22:38.279Z,4.16
2022-08-16T13:25:04.810Z,4.75
2022-08-16T13:28:01.589Z,4.23
2022-08-16T13:30:35.392Z,4.70
2022-08-16T13:33:10.753Z,4.45
2022-08-16T13:35:43.181Z,4.20
2022-08-16T13:38:10.286Z,4.40
2022-08-16T13:40:48.219Z,4.23
2022-08-16T13:43:15.701Z,4.17
2022-08-16T13:45:44.933Z,4.10
2022-08-16T13:48:21.894Z,4.38
2022-08-16T13:50:52.630Z,4.32
2022-08-16T13:53:24.457Z,4.45
2022-08-16T13:55:57.992Z,4.53
2022-08-16T13:58:34.411Z,4.13
2022-08-16T14:01:09.481Z,4.26
2022-08-16T14:03:36.602Z,4.38
2022-08-16T14:06:04.143Z,4.58
2022-08-16T14:08:30.719Z,4.53
2022-08-16T14:10:57.997Z,4.44
2022-08-16T14:13:24.581Z,4.74
2022-08-16T14:15:51.591Z,4.65
2022-08-16T14:18:20.346Z,4.47
2022-08-16T14:20:48.844Z,4.18
2022-08-16T14:23:21.792Z,4.60
2022-08-16T14:25:54.316Z,4.58
2022-08-16T14:28:25.924Z,4.40
2022-08-16T14:30:53.092Z,4.80
2022-08-16T14:33:19.803Z,4.54
2022-08-16T14:35:50.357Z,4.66
2022-08-16T14:38:18.877Z,4.55
2022-08-16T14:40:49.506Z,4.18
2022-08-16T14:43:19.812Z,4.46
2022-08-16T14:45:50.440Z,4.20
2022-08-16T14:48:21.474Z,4.79
2022-08-16T14:50:51.958Z,4.40
2022-08-16T14:53:18.556Z,4.24
2022-08-16T14:55:45.168Z,4.93
2022-08-16T14:58:18.923Z,4.35
2022-08-16T15:00:50.324Z,4.38
2022-08-16T15:03:17.565Z,4.73
2022-08-16T15:05:44.319Z,4.55
2022-08-16T15:08:13.184Z,4.61
2022-08-16T15:10:46.869Z,4.57
2022-08-16T15:13:13.432Z,4.41
2022-08-16T15:15:42.073Z,4.23
2022-08-16T15:18:12.138Z,4.57
2022-08-16T15:20:39.167Z,4.57
2022-08-16T15:23:06.293Z,4.58
2022-08-16T15:25:32.902Z,4.81
2022-08-16T15:27:59.565Z,4.62
2022-08-16T15:30:59.999Z,4.49
2022-08-16T15:33:13.086Z,4.56
2022-08-16T15:35:39.696Z,4.37
2022-08-16T15:38:09.166Z,4.49
2022-08-16T15:40:35.909Z,4.71
2022-08-16T15:43:02.779Z,5.00
2022-08-16T15:45:33.330Z,4.64
2022-08-16T15:48:00.159Z,4.72
2022-08-16T15:50:33.822Z,4.67
2022-08-16T15:53:00.405Z,4.19
2022-08-16T15:55:34.827Z,4.44
2022-08-16T15:58:35.563Z,4.18
2022-08-16T16:00:48.546Z,4.82
2022-08-16T16:03:15.288Z,4.53
2022-08-16T16:05:41.840Z,4.60
2022-08-16T16:08:11.387Z,4.50
2022-08-16T16:10:39.748Z,4.55
2022-08-16T16:13:08.818Z,5.06
2022-08-16T16:15:36.492Z,4.56
2022-08-16T16:18:09.327Z,4.60
2022-08-16T16:20:38.932Z,4.88
2022-08-16T16:23:10.666Z,4.98
2022-08-16T16:25:37.705Z,5.32
2022-08-16T16:28:04.277Z,5.35
2022-08-16T16:30:44.881Z,5.62
2022-08-16T16:33:11.723Z,5.14
2022-08-16T16:35:46.819Z,5.12
2022-08-16T16:38:14.405Z,4.58
2022-08-16T16:40:46.081Z,5.00
2022-08-16T16:43:16.138Z,4.81
2022-08-16T16:45:42.723Z,4.82
2022-08-16T16:48:12.648Z,4.65
2022-08-16T16:50:39.629Z,4.57
2022-08-16T16:53:17.836Z,6.30
2022-08-16T16:55:44.690Z,4.90
2022-08-16T16:58:35.453Z,5.44
2022-08-16T17:01:03.226Z,5.59
2022-08-16T17:03:31.095Z,5.01
2022-08-16T17:06:02.769Z,5.17
2022-08-16T17:08:35.510Z,5.36
2022-08-16T17:11:02.307Z,5.01
2022-08-16T17:13:30.464Z,4.86
2022-08-16T17:15:57.305Z,5.31
2022-08-16T17:19:16.878Z,5.02
2022-08-16T17:21:11.498Z,4.60
2022-08-16T17:23:59.135Z,4.82
2022-08-16T17:26:30.158Z,4.42
2022-08-16T17:28:58.056Z,4.88
2022-08-16T17:31:40.711Z,5.15
2022-08-16T17:34:30.162Z,5.38
2022-08-16T17:36:58.823Z,4.73
2022-08-16T17:39:27.525Z,4.86
2022-08-16T17:41:56.156Z,4.88
2022-08-16T17:44:22.666Z,4.78
2022-08-16T17:46:51.443Z,4.99
2022-08-16T17:49:20.351Z,5.08
2022-08-16T17:51:47.230Z,4.50
2022-08-16T17:54:16.944Z,5.00
2022-08-16T17:56:48.950Z,4.63
2022-08-16T17:59:15.722Z,4.83
2022-08-16T18:01:42.636Z,4.79
2022-08-16T18:04:10.116Z,5.07
2022-08-16T18:06:36.946Z,5.04
2022-08-16T18:09:03.921Z,5.29
2022-08-16T18:11:32.931Z,5.09
2022-08-16T18:13:59.814Z,5.31
2022-08-16T18:16:26.378Z,5.13
2022-08-16T18:18:56.194Z,5.04
2022-08-16T18:21:22.803Z,5.48
2022-08-16T18:23:49.250Z,5.16
2022-08-16T18:26:18.148Z,5.45
2022-08-16T18:28:44.718Z,5.32
2022-08-16T18:31:13.639Z,5.14
2022-08-16T18:33:43.665Z,5.10
2022-08-16T18:36:20.733Z,4.95
2022-08-16T18:38:50.588Z,5.20
2022-08-16T18:41:17.121Z,5.43
2022-08-16T18:43:54.259Z,5.16
2022-08-16T18:46:30.774Z,5.53
2022-08-16T18:48:57.513Z,4.87
2022-08-16T18:51:25.438Z,5.31
2022-08-16T18:53:52.421Z,5.60
2022-08-16T18:56:19.318Z,5.73
2022-08-16T18:58:45.900Z,5.87
2022-08-16T19:01:12.529Z,5.72
2022-08-16T19:03:39.029Z,5.82
2022-08-16T19:06:05.824Z,5.62
2022-08-16T19:08:32.361Z,5.95
2022-08-16T19:10:58.890Z,6.01
2022-08-16T19:13:25.746Z,5.94
2022-08-16T19:15:54.247Z,6.15
2022-08-16T19:18:21.065Z,6.35
2022-08-16T19:20:47.887Z,6.36
2022-08-16T19:23:14.596Z,6.08
2022-08-16T19:25:48.568Z,6.33
2022-08-16T19:28:49.073Z,5.97
2022-08-16T19:31:02.518Z,6.24
2022-08-16T19:33:29.044Z,6.34
2022-08-16T19:35:55.818Z,6.06
2022-08-16T19:38:23.600Z,5.99
2022-08-16T19:40:50.553Z,6.17
2022-08-16T19:43:17.441Z,6.56
2022-08-16T19:45:46.095Z,7.12
2022-08-16T19:48:12.972Z,6.79
2022-08-16T19:50:39.559Z,6.19
2022-08-16T19:53:13.134Z,6.15
2022-08-16T19:55:45.620Z,6.35
2022-08-16T19:58:14.213Z,6.51
2022-08-16T20:00:40.749Z,6.75
2022-08-16T20:03:10.023Z,6.41
2022-08-16T20:05:36.600Z,6.46
2022-08-16T20:08:04.698Z,6.28
2022-08-16T20:10:31.668Z,6.49
2022-08-16T20:13:02.295Z,6.29
2022-08-16T20:15:31.719Z,6.40
2022-08-16T20:17:58.454Z,6.03
2022-08-16T20:20:26.205Z,5.93
2022-08-16T20:22:54.369Z,5.77
2022-08-16T20:25:28.009Z,5.92
2022-08-16T20:27:55.185Z,5.89
2022-08-16T20:30:21.716Z,5.80
2022-08-16T20:32:48.716Z,5.66
2022-08-16T20:35:15.503Z,5.81
2022-08-16T20:37:42.160Z,6.22
2022-08-16T20:40:33.765Z,5.62
2022-08-16T20:42:57.944Z,5.81
2022-08-16T20:45:24.932Z,5.81
2022-08-16T20:47:55.527Z,5.59
2022-08-16T20:50:22.137Z,5.80
2022-08-16T20:52:48.913Z,5.94
2022-08-16T20:55:15.571Z,6.53
2022-08-16T20:57:44.216Z,6.56
2022-08-16T21:00:10.989Z,6.40
2022-08-16T21:02:40.601Z,6.68
2022-08-16T21:05:07.181Z,7.31
2022-08-16T21:07:35.254Z,6.76
2022-08-16T21:10:01.857Z,7.07
2022-08-16T21:12:29.230Z,6.96
2022-08-16T21:15:01.520Z,6.79
2022-08-16T21:17:28.358Z,6.37
2022-08-16T21:19:54.880Z,6.20
2022-08-16T21:22:21.396Z,5.84
2022-08-16T21:24:48.223Z,5.83
2022-08-16T21:27:19.726Z,5.89
2022-08-16T21:29:48.089Z,5.77
2022-08-16T21:32:15.631Z,5.79
2022-08-16T21:34:42.460Z,5.74
2022-08-16T21:37:08.987Z,5.68
2022-08-16T21:39:35.637Z,5.99
2022-08-16T21:42:02.457Z,5.95
2022-08-16T21:44:38.679Z,5.59
2022-08-16T21:47:05.783Z,6.05
2022-08-16T21:49:34.975Z,5.56
2022-08-16T21:52:01.682Z,5.77
2022-08-16T21:54:28.460Z,5.68
2022-08-16T21:56:54.975Z,5.83
2022-08-16T21:59:21.556Z,5.95
2022-08-16T22:01:48.152Z,5.73
2022-08-16T22:04:36.874Z,5.65
2022-08-16T22:07:02.303Z,5.46
2022-08-16T22:09:29.583Z,5.32
2022-08-16T22:11:56.144Z,5.93
2022-08-16T22:14:23.019Z,5.61
2022-08-16T22:16:49.510Z,5.40
2022-08-16T22:19:16.313Z,5.80
2022-08-16T22:21:42.899Z,5.60
2022-08-16T22:24:10.623Z,5.19
2022-08-16T22:26:42.292Z,5.69
2022-08-16T22:29:09.898Z,5.13
2022-08-16T22:31:36.401Z,5.58
2022-08-16T22:34:02.997Z,5.63
2022-08-16T22:36:30.317Z,5.51
2022-08-16T22:38:58.103Z,5.35
2022-08-16T22:41:25.188Z,5.34
2022-08-16T22:43:52.059Z,5.55
2022-08-16T22:46:18.737Z,5.82
2022-08-16T22:48:45.182Z,5.86
2022-08-16T22:51:12.447Z,6.06
2022-08-16T22:53:38.946Z,5.89
2022-08-16T22:56:05.504Z,6.01
2022-08-16T22:58:34.043Z,5.72
2022-08-16T23:01:03.587Z,5.60
2022-08-16T23:03:32.865Z,5.86
2022-08-16T23:05:59.493Z,6.01
2022-08-16T23:08:38.467Z,5.96
2022-08-16T23:11:06.264Z,6.30
2022-08-16T23:13:34.063Z,6.18
2022-08-16T23:16:00.888Z,6.08
2022-08-16T23:18:28.851Z,5.92
2022-08-16T23:20:55.665Z,6.48
2022-08-16T23:23:22.406Z,6.24
2022-08-16T23:25:49.066Z,6.15
2022-08-16T23:28:15.711Z,6.51
2022-08-16T23:30:42.519Z,6.21
2022-08-16T23:33:09.877Z,6.67
2022-08-16T23:35:45.210Z,6.29
2022-08-16T23:38:37.628Z,6.38
2022-08-16T23:40:58.740Z,6.19
2022-08-16T23:43:25.906Z,6.22
2022-08-16T23:45:52.759Z,6.18
2022-08-16T23:48:19.306Z,6.26
2022-08-16T23:50:45.878Z,5.80
2022-08-16T23:53:12.476Z,6.12
2022-08-16T23:55:38.998Z,6.05
2022-08-16T23:58:05.567Z,6.02
